sensor_id;sensor_type;location;lat;lon;timestamp;temperature;humidity
65036;DHT22;51603;49.300;8.880;2023-11-19T00:00:06;7.30;99.90
65036;DHT22;51603;49.300;8.880;2023-11-19T00:02:38;7.30;99.90
65036;DHT22;51603;49.300;8.880;2023-11-19T00:05:04;7.30;99.90
65036;DHT22;51603;49.300;8.880;2023-11-19T00:07:37;7.30;99.90
65036;DHT22;51603;49.300;8.880;2023-11-19T00:10:13;7.30;99.90
65036;DHT22;51603;49.300;8.880;2023-11-19T00:12:44;7.30;99.90
65036;DHT22;51603;49.300;8.880;2023-11-19T00:15:10;7.30;99.90
65036;DHT22;51603;49.300;8.880;2023-11-19T00:17:39;7.20;99.90
65036;DHT22;51603;49.300;8.880;2023-11-19T00:20:15;7.20;99.90
65036;DHT22;51603;49.300;8.880;2023-11-19T00:22:41;7.30;99.90
65036;DHT22;51603;49.300;8.880;2023-11-19T00:25:10;7.30;99.90
65036;DHT22;51603;49.300;8.880;2023-11-19T00:27:36;7.30;99.90
65036;DHT22;51603;49.300;8.880;2023-11-19T00:30:06;7.30;99.90
65036;DHT22;51603;49.300;8.880;2023-11-19T00:32:32;7.30;99.90
65036;DHT22;51603;49.300;8.880;2023-11-19T00:34:58;7.30;99.90
65036;DHT22;51603;49.300;8.880;2023-11-19T00:37:23;7.30;99.90
65036;DHT22;51603;49.300;8.880;2023-11-19T00:39:49;7.30;99.90
65036;DHT22;51603;49.300;8.880;2023-11-19T00:42:14;7.30;99.90
65036;DHT22;51603;49.300;8.880;2023-11-19T00:44:40;7.30;99.90
65036;DHT22;51603;49.300;8.880;2023-11-19T00:47:06;7.20;99.90
65036;DHT22;51603;49.300;8.880;2023-11-19T00:49:32;7.20;99.90
65036;DHT22;51603;49.300;8.880;2023-11-19T00:51:58;7.20;99.90
65036;DHT22;51603;49.300;8.880;2023-11-19T00:54:24;7.20;99.90
65036;DHT22;51603;49.300;8.880;2023-11-19T00:56:54;7.20;99.90
65036;DHT22;51603;49.300;8.880;2023-11-19T00:59:20;7.20;99.90
65036;DHT22;51603;49.300;8.880;2023-11-19T01:01:45;7.20;99.90
65036;DHT22;51603;49.300;8.880;2023-11-19T01:04:13;7.20;99.90
65036;DHT22;51603;49.300;8.880;2023-11-19T01:06:39;7.20;99.90
65036;DHT22;51603;49.300;8.880;2023-11-19T01:09:04;7.10;99.90
65036;DHT22;51603;49.300;8.880;2023-11-19T01:11:30;7.10;99.90
65036;DHT22;51603;49.300;8.880;2023-11-19T01:13:56;7.20;99.90
65036;DHT22;51603;49.300;8.880;2023-11-19T01:16:21;7.10;99.90
65036;DHT22;51603;49.300;8.880;2023-11-19T01:18:48;7.10;99.90
65036;DHT22;51603;49.300;8.880;2023-11-19T01:21:14;7.20;99.90
65036;DHT22;51603;49.300;8.880;2023-11-19T01:23:40;7.20;99.90
65036;DHT22;51603;49.300;8.880;2023-11-19T01:26:08;7.20;99.90
65036;DHT22;51603;49.300;8.880;2023-11-19T01:28:35;7.20;99.90
65036;DHT22;51603;49.300;8.880;2023-11-19T01:31:01;7.20;99.90
65036;DHT22;51603;49.300;8.880;2023-11-19T01:33:26;7.20;99.90
65036;DHT22;51603;49.300;8.880;2023-11-19T01:35:53;7.20;99.90
65036;DHT22;51603;49.300;8.880;2023-11-19T01:38:18;7.20;99.90
65036;DHT22;51603;49.300;8.880;2023-11-19T01:40:44;7.20;99.90
65036;DHT22;51603;49.300;8.880;2023-11-19T01:43:09;7.20;99.90
65036;DHT22;51603;49.300;8.880;2023-11-19T01:45:37;7.20;99.90
65036;DHT22;51603;49.300;8.880;2023-11-19T01:48:04;7.20;99.90
65036;DHT22;51603;49.300;8.880;2023-11-19T01:50:30;7.20;99.90
65036;DHT22;51603;49.300;8.880;2023-11-19T01:52:57;7.20;99.90
65036;DHT22;51603;49.300;8.880;2023-11-19T01:55:24;7.20;99.90
65036;DHT22;51603;49.300;8.880;2023-11-19T01:57:51;7.20;99.90
65036;DHT22;51603;49.300;8.880;2023-11-19T02:00:18;7.10;99.90
65036;DHT22;51603;49.300;8.880;2023-11-19T02:02:48;7.10;99.90
65036;DHT22;51603;49.300;8.880;2023-11-19T02:05:14;7.20;99.90
65036;DHT22;51603;49.300;8.880;2023-11-19T02:07:40;7.20;99.90
65036;DHT22;51603;49.300;8.880;2023-11-19T02:10:06;7.20;99.90
65036;DHT22;51603;49.300;8.880;2023-11-19T02:12:38;7.20;99.90
65036;DHT22;51603;49.300;8.880;2023-11-19T02:15:04;7.20;99.90
65036;DHT22;51603;49.300;8.880;2023-11-19T02:17:30;7.20;99.90
65036;DHT22;51603;49.300;8.880;2023-11-19T02:20:00;7.20;99.90
65036;DHT22;51603;49.300;8.880;2023-11-19T02:22:25;7.20;99.90
65036;DHT22;51603;49.300;8.880;2023-11-19T02:24:54;7.20;99.90
65036;DHT22;51603;49.300;8.880;2023-11-19T02:27:52;7.20;99.90
65036;DHT22;51603;49.300;8.880;2023-11-19T02:30:21;7.20;99.90
65036;DHT22;51603;49.300;8.880;2023-11-19T02:32:55;7.20;99.90
65036;DHT22;51603;49.300;8.880;2023-11-19T02:35:23;7.20;99.90
65036;DHT22;51603;49.300;8.880;2023-11-19T02:37:48;7.10;99.90
65036;DHT22;51603;49.300;8.880;2023-11-19T02:40:14;7.20;99.90
65036;DHT22;51603;49.300;8.880;2023-11-19T02:42:40;7.20;99.90
65036;DHT22;51603;49.300;8.880;2023-11-19T02:45:06;7.20;99.90
65036;DHT22;51603;49.300;8.880;2023-11-19T02:47:33;7.20;99.90
65036;DHT22;51603;49.300;8.880;2023-11-19T02:49:59;7.30;99.90
65036;DHT22;51603;49.300;8.880;2023-11-19T02:52:24;7.20;99.90
65036;DHT22;51603;49.300;8.880;2023-11-19T02:54:50;7.30;99.90
65036;DHT22;51603;49.300;8.880;2023-11-19T02:57:16;7.20;99.90
65036;DHT22;51603;49.300;8.880;2023-11-19T02:59:44;7.20;99.90
65036;DHT22;51603;49.300;8.880;2023-11-19T03:02:10;7.20;99.90
65036;DHT22;51603;49.300;8.880;2023-11-19T03:04:37;7.30;99.90
65036;DHT22;51603;49.300;8.880;2023-11-19T03:07:05;7.30;99.90
65036;DHT22;51603;49.300;8.880;2023-11-19T03:09:30;7.40;99.90
65036;DHT22;51603;49.300;8.880;2023-11-19T03:11:56;7.60;99.90
65036;DHT22;51603;49.300;8.880;2023-11-19T03:14:21;8.00;99.90
65036;DHT22;51603;49.300;8.880;2023-11-19T03:16:48;8.50;99.90
65036;DHT22;51603;49.300;8.880;2023-11-19T03:19:13;9.00;99.90
65036;DHT22;51603;49.300;8.880;2023-11-19T03:21:39;9.30;99.90
65036;DHT22;51603;49.300;8.880;2023-11-19T03:24:05;9.50;99.90
65036;DHT22;51603;49.300;8.880;2023-11-19T03:26:30;9.60;99.90
65036;DHT22;51603;49.300;8.880;2023-11-19T03:28:56;9.80;99.90
65036;DHT22;51603;49.300;8.880;2023-11-19T03:31:22;9.80;99.90
65036;DHT22;51603;49.300;8.880;2023-11-19T03:33:48;9.90;99.90
65036;DHT22;51603;49.300;8.880;2023-11-19T03:36:13;9.90;99.90
65036;DHT22;51603;49.300;8.880;2023-11-19T03:38:39;10.00;99.90
65036;DHT22;51603;49.300;8.880;2023-11-19T03:41:11;10.00;99.90
65036;DHT22;51603;49.300;8.880;2023-11-19T03:43:37;10.00;99.90
65036;DHT22;51603;49.300;8.880;2023-11-19T03:46:02;10.10;99.90
65036;DHT22;51603;49.300;8.880;2023-11-19T03:48:30;10.10;99.90
65036;DHT22;51603;49.300;8.880;2023-11-19T03:50:56;10.10;99.90
65036;DHT22;51603;49.300;8.880;2023-11-19T03:53:21;10.20;99.90
65036;DHT22;51603;49.300;8.880;2023-11-19T03:55:47;10.20;99.90
65036;DHT22;51603;49.300;8.880;2023-11-19T03:58:13;10.20;99.90
65036;DHT22;51603;49.300;8.880;2023-11-19T04:00:39;10.20;99.90
65036;DHT22;51603;49.300;8.880;2023-11-19T04:03:04;10.30;99.90
65036;DHT22;51603;49.300;8.880;2023-11-19T04:05:30;10.30;99.90
65036;DHT22;51603;49.300;8.880;2023-11-19T04:07:55;10.30;99.90
65036;DHT22;51603;49.300;8.880;2023-11-19T04:10:21;10.30;99.90
65036;DHT22;51603;49.300;8.880;2023-11-19T04:12:47;10.30;99.90
65036;DHT22;51603;49.300;8.880;2023-11-19T04:15:14;10.40;99.90
65036;DHT22;51603;49.300;8.880;2023-11-19T04:17:39;10.40;99.90
65036;DHT22;51603;49.300;8.880;2023-11-19T04:20:06;10.40;99.90
65036;DHT22;51603;49.300;8.880;2023-11-19T04:22:36;10.40;99.90
65036;DHT22;51603;49.300;8.880;2023-11-19T04:25:01;10.40;99.90
65036;DHT22;51603;49.300;8.880;2023-11-19T04:27:27;10.40;99.90
65036;DHT22;51603;49.300;8.880;2023-11-19T04:29:52;10.40;99.90
65036;DHT22;51603;49.300;8.880;2023-11-19T04:32:18;10.50;99.90
65036;DHT22;51603;49.300;8.880;2023-11-19T04:34:44;10.50;99.90
65036;DHT22;51603;49.300;8.880;2023-11-19T04:37:10;10.50;99.90
65036;DHT22;51603;49.300;8.880;2023-11-19T04:39:35;10.60;99.90
65036;DHT22;51603;49.300;8.880;2023-11-19T04:42:01;10.60;99.90
65036;DHT22;51603;49.300;8.880;2023-11-19T04:44:26;10.60;99.90
65036;DHT22;51603;49.300;8.880;2023-11-19T04:46:52;10.60;99.90
65036;DHT22;51603;49.300;8.880;2023-11-19T04:49:17;10.60;99.90
65036;DHT22;51603;49.300;8.880;2023-11-19T04:51:45;10.60;99.90
65036;DHT22;51603;49.300;8.880;2023-11-19T04:54:13;10.70;99.90
65036;DHT22;51603;49.300;8.880;2023-11-19T04:56:39;10.70;99.90
65036;DHT22;51603;49.300;8.880;2023-11-19T04:59:05;10.70;99.90
65036;DHT22;51603;49.300;8.880;2023-11-19T05:01:32;10.70;99.90
65036;DHT22;51603;49.300;8.880;2023-11-19T05:03:57;10.70;99.90
65036;DHT22;51603;49.300;8.880;2023-11-19T05:06:29;10.70;99.90
65036;DHT22;51603;49.300;8.880;2023-11-19T05:08:56;10.70;99.90
65036;DHT22;51603;49.300;8.880;2023-11-19T05:11:21;10.70;99.90
65036;DHT22;51603;49.300;8.880;2023-11-19T05:13:47;10.70;99.90
65036;DHT22;51603;49.300;8.880;2023-11-19T05:16:12;10.70;99.90
65036;DHT22;51603;49.300;8.880;2023-11-19T05:18:41;10.80;99.90
65036;DHT22;51603;49.300;8.880;2023-11-19T05:21:07;10.80;99.90
65036;DHT22;51603;49.300;8.880;2023-11-19T05:23:33;10.80;99.90
65036;DHT22;51603;49.300;8.880;2023-11-19T05:26:01;10.80;99.90
65036;DHT22;51603;49.300;8.880;2023-11-19T05:28:27;10.80;99.90
65036;DHT22;51603;49.300;8.880;2023-11-19T05:30:53;10.80;99.90
65036;DHT22;51603;49.300;8.880;2023-11-19T05:33:18;10.80;99.90
65036;DHT22;51603;49.300;8.880;2023-11-19T05:35:44;10.90;99.90
65036;DHT22;51603;49.300;8.880;2023-11-19T05:38:09;10.80;99.90
65036;DHT22;51603;49.300;8.880;2023-11-19T05:40:35;10.90;99.90
65036;DHT22;51603;49.300;8.880;2023-11-19T05:43:01;10.90;99.90
65036;DHT22;51603;49.300;8.880;2023-11-19T05:45:26;10.90;99.90
65036;DHT22;51603;49.300;8.880;2023-11-19T05:47:52;10.90;99.90
65036;DHT22;51603;49.300;8.880;2023-11-19T05:50:18;11.00;99.90
65036;DHT22;51603;49.300;8.880;2023-11-19T05:52:44;11.00;99.90
65036;DHT22;51603;49.300;8.880;2023-11-19T05:55:09;11.10;99.90
65036;DHT22;51603;49.300;8.880;2023-11-19T05:57:36;11.10;99.90
65036;DHT22;51603;49.300;8.880;2023-11-19T06:00:03;11.10;99.90
65036;DHT22;51603;49.300;8.880;2023-11-19T06:02:32;11.10;99.90
65036;DHT22;51603;49.300;8.880;2023-11-19T06:04:58;11.10;99.90
65036;DHT22;51603;49.300;8.880;2023-11-19T06:07:23;11.10;99.90
65036;DHT22;51603;49.300;8.880;2023-11-19T06:09:50;11.20;99.90
65036;DHT22;51603;49.300;8.880;2023-11-19T06:12:15;11.20;99.90
65036;DHT22;51603;49.300;8.880;2023-11-19T06:14:41;11.20;99.90
65036;DHT22;51603;49.300;8.880;2023-11-19T06:17:06;11.30;99.90
65036;DHT22;51603;49.300;8.880;2023-11-19T06:19:33;11.30;99.90
65036;DHT22;51603;49.300;8.880;2023-11-19T06:21:59;11.30;99.90
65036;DHT22;51603;49.300;8.880;2023-11-19T06:24:25;11.40;99.90
65036;DHT22;51603;49.300;8.880;2023-11-19T06:26:50;11.40;99.90
65036;DHT22;51603;49.300;8.880;2023-11-19T06:29:16;11.40;99.90
65036;DHT22;51603;49.300;8.880;2023-11-19T06:31:44;11.40;99.90
65036;DHT22;51603;49.300;8.880;2023-11-19T06:34:10;11.40;99.90
65036;DHT22;51603;49.300;8.880;2023-11-19T06:36:36;11.50;99.90
65036;DHT22;51603;49.300;8.880;2023-11-19T06:39:01;11.50;99.90
65036;DHT22;51603;49.300;8.880;2023-11-19T06:41:27;11.50;99.90
65036;DHT22;51603;49.300;8.880;2023-11-19T06:43:54;11.60;99.90
65036;DHT22;51603;49.300;8.880;2023-11-19T06:46:20;11.60;99.90
65036;DHT22;51603;49.300;8.880;2023-11-19T06:48:45;11.60;99.90
65036;DHT22;51603;49.300;8.880;2023-11-19T06:51:12;11.70;99.90
65036;DHT22;51603;49.300;8.880;2023-11-19T06:53:37;11.70;99.90
65036;DHT22;51603;49.300;8.880;2023-11-19T06:56:05;11.70;99.90
65036;DHT22;51603;49.300;8.880;2023-11-19T06:58:35;11.70;99.90
65036;DHT22;51603;49.300;8.880;2023-11-19T07:01:01;11.70;99.90
65036;DHT22;51603;49.300;8.880;2023-11-19T07:03:26;11.70;99.90
65036;DHT22;51603;49.300;8.880;2023-11-19T07:05:52;11.70;99.90
65036;DHT22;51603;49.300;8.880;2023-11-19T07:08:17;11.70;99.90
65036;DHT22;51603;49.300;8.880;2023-11-19T07:10:42;11.70;99.90
65036;DHT22;51603;49.300;8.880;2023-11-19T07:13:08;11.70;99.90
65036;DHT22;51603;49.300;8.880;2023-11-19T07:15:33;11.80;99.90
65036;DHT22;51603;49.300;8.880;2023-11-19T07:17:59;11.80;99.90
65036;DHT22;51603;49.300;8.880;2023-11-19T07:20:25;11.80;99.90
65036;DHT22;51603;49.300;8.880;2023-11-19T07:22:52;11.80;99.90
65036;DHT22;51603;49.300;8.880;2023-11-19T07:25:17;11.80;99.90
65036;DHT22;51603;49.300;8.880;2023-11-19T07:27:43;11.90;99.90
65036;DHT22;51603;49.300;8.880;2023-11-19T07:30:08;11.90;99.90
65036;DHT22;51603;49.300;8.880;2023-11-19T07:32:34;11.90;99.90
65036;DHT22;51603;49.300;8.880;2023-11-19T07:35:00;11.90;99.90
65036;DHT22;51603;49.300;8.880;2023-11-19T07:37:26;12.00;99.90
65036;DHT22;51603;49.300;8.880;2023-11-19T07:39:51;12.00;99.90
65036;DHT22;51603;49.300;8.880;2023-11-19T07:42:17;12.00;99.90
65036;DHT22;51603;49.300;8.880;2023-11-19T07:44:43;12.00;99.90
65036;DHT22;51603;49.300;8.880;2023-11-19T07:47:09;12.00;99.90
65036;DHT22;51603;49.300;8.880;2023-11-19T07:49:35;12.00;99.90
65036;DHT22;51603;49.300;8.880;2023-11-19T07:52:01;12.00;99.90
65036;DHT22;51603;49.300;8.880;2023-11-19T07:54:28;11.90;99.90
65036;DHT22;51603;49.300;8.880;2023-11-19T07:56:54;11.90;99.90
65036;DHT22;51603;49.300;8.880;2023-11-19T07:59:19;11.90;99.90
65036;DHT22;51603;49.300;8.880;2023-11-19T08:01:45;11.90;99.90
65036;DHT22;51603;49.300;8.880;2023-11-19T08:04:10;11.80;99.90
65036;DHT22;51603;49.300;8.880;2023-11-19T08:06:36;11.80;99.90
65036;DHT22;51603;49.300;8.880;2023-11-19T08:09:02;11.80;99.90
65036;DHT22;51603;49.300;8.880;2023-11-19T08:11:27;11.80;99.90
65036;DHT22;51603;49.300;8.880;2023-11-19T08:13:53;11.80;99.90
65036;DHT22;51603;49.300;8.880;2023-11-19T08:16:18;11.90;99.90
65036;DHT22;51603;49.300;8.880;2023-11-19T08:18:44;11.90;99.90
65036;DHT22;51603;49.300;8.880;2023-11-19T08:21:10;11.90;99.90
65036;DHT22;51603;49.300;8.880;2023-11-19T08:23:36;11.90;99.90
65036;DHT22;51603;49.300;8.880;2023-11-19T08:26:01;12.00;99.90
65036;DHT22;51603;49.300;8.880;2023-11-19T08:28:27;12.00;99.90
65036;DHT22;51603;49.300;8.880;2023-11-19T08:30:53;12.00;99.90
65036;DHT22;51603;49.300;8.880;2023-11-19T08:33:18;12.00;99.90
65036;DHT22;51603;49.300;8.880;2023-11-19T08:35:44;12.10;99.90
65036;DHT22;51603;49.300;8.880;2023-11-19T08:38:10;12.20;99.90
65036;DHT22;51603;49.300;8.880;2023-11-19T08:40:36;12.20;99.90
65036;DHT22;51603;49.300;8.880;2023-11-19T08:43:02;12.30;99.90
65036;DHT22;51603;49.300;8.880;2023-11-19T08:45:28;12.30;99.90
65036;DHT22;51603;49.300;8.880;2023-11-19T08:47:53;12.30;99.90
65036;DHT22;51603;49.300;8.880;2023-11-19T08:50:19;12.30;99.90
65036;DHT22;51603;49.300;8.880;2023-11-19T08:52:45;12.40;99.90
65036;DHT22;51603;49.300;8.880;2023-11-19T08:55:11;12.50;99.90
65036;DHT22;51603;49.300;8.880;2023-11-19T08:57:38;12.50;99.90
65036;DHT22;51603;49.300;8.880;2023-11-19T09:00:04;12.50;99.90
65036;DHT22;51603;49.300;8.880;2023-11-19T09:02:37;12.50;99.90
65036;DHT22;51603;49.300;8.880;2023-11-19T09:05:03;12.60;99.90
65036;DHT22;51603;49.300;8.880;2023-11-19T09:07:28;12.60;99.90
65036;DHT22;51603;49.300;8.880;2023-11-19T09:09:54;12.60;99.90
65036;DHT22;51603;49.300;8.880;2023-11-19T09:12:20;12.60;99.90
65036;DHT22;51603;49.300;8.880;2023-11-19T09:14:46;12.60;99.90
65036;DHT22;51603;49.300;8.880;2023-11-19T09:17:11;12.60;99.90
65036;DHT22;51603;49.300;8.880;2023-11-19T09:19:37;12.60;99.90
65036;DHT22;51603;49.300;8.880;2023-11-19T09:22:02;12.70;99.90
65036;DHT22;51603;49.300;8.880;2023-11-19T09:24:28;12.80;99.90
65036;DHT22;51603;49.300;8.880;2023-11-19T09:26:53;12.90;99.90
65036;DHT22;51603;49.300;8.880;2023-11-19T09:29:20;13.00;99.90
65036;DHT22;51603;49.300;8.880;2023-11-19T09:31:46;13.00;99.90
65036;DHT22;51603;49.300;8.880;2023-11-19T09:34:12;13.00;99.90
65036;DHT22;51603;49.300;8.880;2023-11-19T09:36:37;13.00;99.90
65036;DHT22;51603;49.300;8.880;2023-11-19T09:39:03;12.90;99.90
65036;DHT22;51603;49.300;8.880;2023-11-19T09:41:30;13.00;99.90
65036;DHT22;51603;49.300;8.880;2023-11-19T09:43:56;12.90;99.90
65036;DHT22;51603;49.300;8.880;2023-11-19T09:46:22;12.90;99.90
65036;DHT22;51603;49.300;8.880;2023-11-19T09:48:52;12.90;99.90
65036;DHT22;51603;49.300;8.880;2023-11-19T09:51:20;12.90;99.90
65036;DHT22;51603;49.300;8.880;2023-11-19T09:53:46;12.90;99.90
65036;DHT22;51603;49.300;8.880;2023-11-19T09:56:12;12.90;99.90
65036;DHT22;51603;49.300;8.880;2023-11-19T09:58:38;12.90;99.90
65036;DHT22;51603;49.300;8.880;2023-11-19T10:01:03;13.00;99.90
65036;DHT22;51603;49.300;8.880;2023-11-19T10:03:33;13.10;99.90
65036;DHT22;51603;49.300;8.880;2023-11-19T10:06:04;13.20;99.90
65036;DHT22;51603;49.300;8.880;2023-11-19T10:08:31;13.40;99.90
65036;DHT22;51603;49.300;8.880;2023-11-19T10:10:57;13.50;99.90
65036;DHT22;51603;49.300;8.880;2023-11-19T10:13:27;13.70;99.90
65036;DHT22;51603;49.300;8.880;2023-11-19T10:15:53;13.70;99.90
65036;DHT22;51603;49.300;8.880;2023-11-19T10:18:26;13.70;99.90
65036;DHT22;51603;49.300;8.880;2023-11-19T10:20:52;13.80;99.90
65036;DHT22;51603;49.300;8.880;2023-11-19T10:23:18;13.80;99.90
65036;DHT22;51603;49.300;8.880;2023-11-19T10:25:44;13.80;99.90
65036;DHT22;51603;49.300;8.880;2023-11-19T10:28:10;13.90;99.90
65036;DHT22;51603;49.300;8.880;2023-11-19T10:30:35;13.90;99.90
65036;DHT22;51603;49.300;8.880;2023-11-19T10:33:08;13.90;99.90
65036;DHT22;51603;49.300;8.880;2023-11-19T10:35:35;14.00;99.90
65036;DHT22;51603;49.300;8.880;2023-11-19T10:38:14;14.00;99.90
65036;DHT22;51603;49.300;8.880;2023-11-19T10:40:42;14.00;99.90
65036;DHT22;51603;49.300;8.880;2023-11-19T10:43:08;13.90;99.90
65036;DHT22;51603;49.300;8.880;2023-11-19T10:45:35;13.90;99.90
65036;DHT22;51603;49.300;8.880;2023-11-19T10:48:02;13.90;99.90
65036;DHT22;51603;49.300;8.880;2023-11-19T10:50:27;14.00;99.90
65036;DHT22;51603;49.300;8.880;2023-11-19T10:52:56;14.00;99.90
65036;DHT22;51603;49.300;8.880;2023-11-19T10:55:32;14.00;99.90
65036;DHT22;51603;49.300;8.880;2023-11-19T10:58:07;13.90;99.90
65036;DHT22;51603;49.300;8.880;2023-11-19T11:00:39;14.00;99.90
65036;DHT22;51603;49.300;8.880;2023-11-19T11:03:18;14.00;99.90
65036;DHT22;51603;49.300;8.880;2023-11-19T11:05:47;14.00;99.90
65036;DHT22;51603;49.300;8.880;2023-11-19T11:08:13;14.10;99.90
65036;DHT22;51603;49.300;8.880;2023-11-19T11:10:54;14.20;99.90
65036;DHT22;51603;49.300;8.880;2023-11-19T11:13:22;14.30;99.90
65036;DHT22;51603;49.300;8.880;2023-11-19T11:15:50;14.30;99.90
65036;DHT22;51603;49.300;8.880;2023-11-19T11:18:16;14.30;99.90
65036;DHT22;51603;49.300;8.880;2023-11-19T11:20:45;14.40;99.90
65036;DHT22;51603;49.300;8.880;2023-11-19T11:23:23;14.50;99.90
65036;DHT22;51603;49.300;8.880;2023-11-19T11:26:22;14.50;99.90
65036;DHT22;51603;49.300;8.880;2023-11-19T11:31:47;14.40;99.90
65036;DHT22;51603;49.300;8.880;2023-11-19T11:35:28;14.40;99.90
65036;DHT22;51603;49.300;8.880;2023-11-19T11:37:32;14.40;99.90
65036;DHT22;51603;49.300;8.880;2023-11-19T11:39:59;14.50;99.90
65036;DHT22;51603;49.300;8.880;2023-11-19T11:47:23;14.80;99.90
65036;DHT22;51603;49.300;8.880;2023-11-19T11:49:49;14.80;99.90
65036;DHT22;51603;49.300;8.880;2023-11-19T11:52:16;15.00;99.90
65036;DHT22;51603;49.300;8.880;2023-11-19T11:54:42;15.10;99.90
65036;DHT22;51603;49.300;8.880;2023-11-19T11:57:11;15.10;99.90
65036;DHT22;51603;49.300;8.880;2023-11-19T11:59:43;15.10;99.90
65036;DHT22;51603;49.300;8.880;2023-11-19T12:02:15;15.20;99.90
65036;DHT22;51603;49.300;8.880;2023-11-19T12:04:42;15.20;99.90
65036;DHT22;51603;49.300;8.880;2023-11-19T12:07:22;15.30;99.90
65036;DHT22;51603;49.300;8.880;2023-11-19T12:09:52;15.30;99.90
65036;DHT22;51603;49.300;8.880;2023-11-19T12:12:25;15.20;99.90
65036;DHT22;51603;49.300;8.880;2023-11-19T12:15:02;15.00;99.90
65036;DHT22;51603;49.300;8.880;2023-11-19T12:20:00;14.80;99.90
65036;DHT22;51603;49.300;8.880;2023-11-19T12:22:25;14.90;99.90
65036;DHT22;51603;49.300;8.880;2023-11-19T12:24:55;15.00;99.90
65036;DHT22;51603;49.300;8.880;2023-11-19T12:27:21;15.00;99.90
65036;DHT22;51603;49.300;8.880;2023-11-19T12:29:51;14.90;99.90
65036;DHT22;51603;49.300;8.880;2023-11-19T12:32:17;14.90;99.90
65036;DHT22;51603;49.300;8.880;2023-11-19T12:34:43;14.80;99.90
65036;DHT22;51603;49.300;8.880;2023-11-19T12:37:10;14.70;99.90
65036;DHT22;51603;49.300;8.880;2023-11-19T12:39:36;14.80;99.90
65036;DHT22;51603;49.300;8.880;2023-11-19T12:42:02;14.80;99.90
65036;DHT22;51603;49.300;8.880;2023-11-19T12:44:27;14.80;99.90
65036;DHT22;51603;49.300;8.880;2023-11-19T12:47:06;14.80;99.90
65036;DHT22;51603;49.300;8.880;2023-11-19T12:49:32;14.90;99.90
65036;DHT22;51603;49.300;8.880;2023-11-19T12:51:59;14.80;99.90
65036;DHT22;51603;49.300;8.880;2023-11-19T12:54:35;14.80;99.90
65036;DHT22;51603;49.300;8.880;2023-11-19T12:57:01;14.80;99.90
65036;DHT22;51603;49.300;8.880;2023-11-19T12:59:27;14.70;99.90
65036;DHT22;51603;49.300;8.880;2023-11-19T13:01:59;14.70;99.90
65036;DHT22;51603;49.300;8.880;2023-11-19T13:04:29;14.60;99.90
65036;DHT22;51603;49.300;8.880;2023-11-19T13:07:01;14.60;99.90
65036;DHT22;51603;49.300;8.880;2023-11-19T13:09:29;14.70;99.90
65036;DHT22;51603;49.300;8.880;2023-11-19T13:11:55;14.70;99.90
65036;DHT22;51603;49.300;8.880;2023-11-19T13:14:36;14.90;99.90
65036;DHT22;51603;49.300;8.880;2023-11-19T13:17:01;15.00;99.90
65036;DHT22;51603;49.300;8.880;2023-11-19T13:19:27;15.10;99.90
65036;DHT22;51603;49.300;8.880;2023-11-19T13:21:53;15.10;99.90
65036;DHT22;51603;49.300;8.880;2023-11-19T13:24:18;15.20;99.90
65036;DHT22;51603;49.300;8.880;2023-11-19T13:26:43;15.30;99.90
65036;DHT22;51603;49.300;8.880;2023-11-19T13:29:09;15.40;99.90
65036;DHT22;51603;49.300;8.880;2023-11-19T13:31:36;15.40;99.90
65036;DHT22;51603;49.300;8.880;2023-11-19T13:34:01;15.40;99.90
65036;DHT22;51603;49.300;8.880;2023-11-19T13:36:27;15.30;99.90
65036;DHT22;51603;49.300;8.880;2023-11-19T13:38:52;15.40;99.90
65036;DHT22;51603;49.300;8.880;2023-11-19T13:41:24;15.50;99.90
65036;DHT22;51603;49.300;8.880;2023-11-19T13:43:50;15.60;99.90
65036;DHT22;51603;49.300;8.880;2023-11-19T13:46:16;15.50;99.90
65036;DHT22;51603;49.300;8.880;2023-11-19T13:48:41;15.50;99.90
65036;DHT22;51603;49.300;8.880;2023-11-19T13:51:07;15.50;99.90
65036;DHT22;51603;49.300;8.880;2023-11-19T13:53:33;15.60;99.90
65036;DHT22;51603;49.300;8.880;2023-11-19T13:55:58;15.50;99.90
65036;DHT22;51603;49.300;8.880;2023-11-19T13:58:24;15.50;99.90
65036;DHT22;51603;49.300;8.880;2023-11-19T14:00:49;15.50;99.90
65036;DHT22;51603;49.300;8.880;2023-11-19T14:03:16;15.50;99.90
65036;DHT22;51603;49.300;8.880;2023-11-19T14:05:41;15.60;99.90
65036;DHT22;51603;49.300;8.880;2023-11-19T14:08:07;15.50;99.90
65036;DHT22;51603;49.300;8.880;2023-11-19T14:10:39;15.50;99.90
65036;DHT22;51603;49.300;8.880;2023-11-19T14:13:06;15.30;99.90
65036;DHT22;51603;49.300;8.880;2023-11-19T14:15:31;15.20;99.90
65036;DHT22;51603;49.300;8.880;2023-11-19T14:17:57;15.10;99.90
65036;DHT22;51603;49.300;8.880;2023-11-19T14:20:22;15.00;99.90
65036;DHT22;51603;49.300;8.880;2023-11-19T14:22:48;15.00;99.90
65036;DHT22;51603;49.300;8.880;2023-11-19T14:25:15;15.00;99.90
65036;DHT22;51603;49.300;8.880;2023-11-19T14:27:41;15.00;99.90
65036;DHT22;51603;49.300;8.880;2023-11-19T14:30:09;15.10;99.90
65036;DHT22;51603;49.300;8.880;2023-11-19T14:32:36;15.10;99.90
65036;DHT22;51603;49.300;8.880;2023-11-19T14:35:02;15.10;99.90
65036;DHT22;51603;49.300;8.880;2023-11-19T14:37:29;15.10;99.90
65036;DHT22;51603;49.300;8.880;2023-11-19T14:39:55;15.10;99.90
65036;DHT22;51603;49.300;8.880;2023-11-19T14:42:20;15.00;99.90
65036;DHT22;51603;49.300;8.880;2023-11-19T14:44:46;14.90;99.90
65036;DHT22;51603;49.300;8.880;2023-11-19T14:47:11;14.80;99.90
65036;DHT22;51603;49.300;8.880;2023-11-19T14:49:37;14.60;99.90
65036;DHT22;51603;49.300;8.880;2023-11-19T14:52:03;14.50;99.90
65036;DHT22;51603;49.300;8.880;2023-11-19T14:54:29;14.40;99.90
65036;DHT22;51603;49.300;8.880;2023-11-19T14:56:54;14.20;99.90
65036;DHT22;51603;49.300;8.880;2023-11-19T14:59:20;14.20;99.90
65036;DHT22;51603;49.300;8.880;2023-11-19T15:01:46;14.20;99.90
65036;DHT22;51603;49.300;8.880;2023-11-19T15:04:11;14.10;99.90
65036;DHT22;51603;49.300;8.880;2023-11-19T15:06:37;14.10;99.90
65036;DHT22;51603;49.300;8.880;2023-11-19T15:09:03;14.10;99.90
65036;DHT22;51603;49.300;8.880;2023-11-19T15:11:29;14.10;99.90
65036;DHT22;51603;49.300;8.880;2023-11-19T15:13:55;14.10;99.90
65036;DHT22;51603;49.300;8.880;2023-11-19T15:16:20;14.00;99.90
65036;DHT22;51603;49.300;8.880;2023-11-19T15:18:57;13.90;99.90
65036;DHT22;51603;49.300;8.880;2023-11-19T15:21:28;13.90;99.90
65036;DHT22;51603;49.300;8.880;2023-11-19T15:23:55;13.90;99.90
65036;DHT22;51603;49.300;8.880;2023-11-19T15:26:20;13.80;99.90
65036;DHT22;51603;49.300;8.880;2023-11-19T15:28:46;13.80;99.90
65036;DHT22;51603;49.300;8.880;2023-11-19T15:31:11;13.80;99.90
65036;DHT22;51603;49.300;8.880;2023-11-19T15:33:38;13.80;99.90
65036;DHT22;51603;49.300;8.880;2023-11-19T15:36:05;13.80;99.90
65036;DHT22;51603;49.300;8.880;2023-11-19T15:38:36;13.80;99.90
65036;DHT22;51603;49.300;8.880;2023-11-19T15:41:01;13.80;99.90
65036;DHT22;51603;49.300;8.880;2023-11-19T15:43:27;13.90;99.90